EW4133 Weather Reports


Display with metric or nautical units.
time (UTC)temp
F
wind
direction
speed
MPH
gust
MPH
rain 1hr
in
rain 24hr
in
rain mn
in
humidity
%
barometer
mb
20211208224532 47 288 8.0 23.0 0.00 0.00 0.00 71 1013.1
20211208223011 48 295 15.0 26.0 0.00 0.00 0.00 65 1012.8
20211208221532 49 304 11.0 19.0 0.00 0.00 0.00 64 1012.9
20211208220010 49 307 10.0 16.0 0.00 0.00 0.00 64 1013.0
20211208214503 48 301 9.0 16.0 0.00 0.00 0.00 66 1013.1
20211208213002 47 278 8.0 17.0 0.00 0.00 0.00 67 1013.4
20211208211723 48 301 8.0 23.0 0.00 0.00 0.00 67 1013.9
20211208210122 49 290 8.0 19.0 0.00 0.00 0.00 65 1013.9
20211208204603 49 262 10.0 20.0 0.00 0.00 0.00 64 1014.1
20211208203448 49 257 8.0 18.0 0.00 0.00 0.00 65 1014.2
20211208201555 48 283 13.0 20.0 0.00 0.00 0.00 65 1014.7
20211208200135 49 257 9.0 20.0 0.00 0.00 0.00 66 1014.6
20211208194634 49 299 9.0 18.0 0.00 0.00 0.00 64 1014.6
20211208193105 49 294 5.0 15.0 0.00 0.00 0.00 66 1014.7
20211208191557 48 297 8.0 17.0 0.00 0.00 0.00 69 1014.7
20211208190120 46 314 0.0 1.0 0.00 0.00 0.00 74 1015.0
20211208184605 44 283 0.0 3.0 0.00 0.00 0.00 82 1015.2
20211208183056 42 204 0.0 2.0 0.00 0.00 0.00 85 1015.3
20211208181621 42 263 0.0 2.0 0.00 0.00 0.00 85 1015.4
20211208180038 40 92 0.0 1.0 0.00 0.00 0.00 90 1015.6
20211208174524 37 156 0.0 4.0 0.00 0.00 0.00 92 1015.7
20211208173100 37 65 0.0 1.0 0.00 0.00 0.00 91 1015.6
20211208171540 35 132 0.0 1.0 0.00 0.00 0.00 92 1015.7
20211208170043 35 100 0.0 0.0 0.00 0.00 0.00 91 1015.7
20211208164557 36 354 0.0 0.0 0.00 0.00 0.00 90 1015.8
20211208163030 37 54 0.0 1.0 0.00 0.00 0.00 92 1015.8
20211208161538 35 113 0.0 3.0 0.00 0.00 0.00 95 1015.4
20211208160047 33 158 0.0 2.0 0.00 0.00 0.00 95 1015.9
20211208154545 31 113 0.0 0.0 0.00 0.00 0.00 94 1016.2
20211208153013 30 207 0.0 0.0 0.00 0.00 0.00 93 1016.1
20211208151518 32 81 0.0 1.0 0.00 0.00 0.00 94 1015.8
20211208150046 31 152 0.0 1.0 0.00 0.00 0.00 93 1016.1
20211208144507 31 29 0.0 3.0 0.00 0.00 0.00 92 1015.5
20211208143004 32 40 0.0 1.0 0.00 0.00 0.00 93 1016.2
20211208141503 32 33 0.0 0.0 0.00 0.00 0.00 91 1016.4
20211208140003 32 140 0.0 1.0 0.00 0.00 0.00 90 1016.4
20211208134503 35 106 0.0 1.0 0.00 0.01 0.00 90 1016.6
20211208133211 35 143 0.0 0.0 0.00 0.01 0.00 90 1016.8
20211208131625 34 148 0.0 1.0 0.00 0.01 0.00 89 1016.6
20211208130115 34 228 0.0 0.0 0.00 0.01 0.00 90 1016.7
20211208124818 34 269 0.0 0.0 0.00 0.01 0.00 90 1016.9
20211208123107 34 167 0.0 0.0 0.00 0.01 0.00 89 1017.1
20211208121629 33 208 0.0 0.0 0.00 0.01 0.00 91 1016.8
20211208120110 32 219 0.0 0.0 0.00 0.01 0.00 91 1016.8
20211208114555 32 110 0.0 0.0 0.00 0.01 0.00 90 1016.7
20211208113058 33 208 0.0 0.0 0.00 0.01 0.00 87 1016.5
20211208111624 34 209 0.0 0.0 0.00 0.01 0.00 87 1016.5
20211208110053 34 193 0.0 0.0 0.00 0.01 0.00 88 1016.5
20211208104548 34 131 0.0 1.0 0.00 0.01 0.00 86 1016.3
20211208103111 34 232 0.0 0.0 0.00 0.01 0.00 86 1016.8
20211208101609 35 252 0.0 1.0 0.00 0.01 0.00 86 1016.8
20211208100109 34 262 0.0 1.0 0.00 0.01 0.00 88 1016.9
20211208094613 34 290 0.0 1.0 0.00 0.01 0.00 88 1017.1
20211208093105 34 273 0.0 1.0 0.00 0.01 0.00 90 1016.9
20211208091651 33 257 0.0 1.0 0.00 0.01 0.00 88 1016.7
20211208090103 34 239 0.0 1.0 0.00 0.01 0.00 89 1016.4
20211208084536 34 285 0.0 1.0 0.00 0.01 0.00 89 1016.7
20211208083053 34 285 0.0 1.0 0.00 0.01 0.00 87 1017.0
20211208081552 35 266 0.0 0.0 0.00 0.01 0.00 88 1017.1
20211208080037 35 266 0.0 1.0 0.00 0.01 0.00 89 1017.5
20211208074536 34 250 0.0 0.0 0.00 0.02 0.01 89 1017.7
20211208073126 35 290 0.0 1.0 0.00 0.02 0.01 88 1018.0
20211208071529 35 262 0.0 4.0 0.00 0.02 0.01 87 1018.2
20211208070022 35 280 0.0 1.0 0.00 0.02 0.01 85 1018.5
20211208064542 39 216 0.0 0.0 0.00 0.02 0.01 83 1018.4
20211208063023 38 232 0.0 1.0 0.00 0.02 0.01 84 1018.6
20211208061521 37 245 0.0 1.0 0.00 0.02 0.01 87 1018.6
20211208060035 36 262 0.0 1.0 0.00 0.02 0.01 87 1018.5
20211208054526 36 293 0.0 1.0 0.00 0.03 0.01 87 1018.4
20211208053012 36 264 0.0 1.0 0.00 0.03 0.01 86 1018.3
20211208051520 36 263 0.0 1.0 0.00 0.03 0.01 87 1018.2
20211208050025 37 262 0.0 1.0 0.00 0.03 0.01 86 1018.1
20211208044521 37 266 0.0 1.0 0.00 0.03 0.01 86 1018.1
20211208043010 37 287 0.0 1.0 0.00 0.03 0.01 85 1018.1
20211208041507 38 290 0.0 1.0 0.00 0.03 0.01 83 1017.9
20211208040004 38 269 0.0 0.0 0.00 0.03 0.01 83 1017.8
20211208034500 38 263 0.0 1.0 0.00 0.03 0.01 83 1017.8
20211208033136 40 170 0.0 0.0 0.00 0.03 0.01 80 1017.7
20211208031740 40 252 0.0 1.0 0.00 0.03 0.01 80 1018.1
20211208030133 40 290 0.0 3.0 0.00 0.03 0.01 80 1018.2
20211208024751 41 290 0.0 1.0 0.00 0.06 0.01 78 1017.9
20211208023109 41 253 0.0 1.0 0.00 0.06 0.01 77 1017.6
20211208021648 41 260 0.0 1.0 0.00 0.06 0.01 78 1017.6
20211208020210 42 287 0.0 2.0 0.00 0.06 0.01 77 1017.5
20211208014651 42 15 0.0 0.0 0.00 0.07 0.01 76 1017.4
20211208013053 44 75 0.0 1.0 0.00 0.07 0.01 73 1017.4
20211208011801 44 118 0.0 1.0 0.00 0.07 0.01 72 1017.2
20211208010114 44 103 0.0 5.0 0.00 0.07 0.01 73 1016.9
20211208004659 44 113 1.0 4.0 0.00 0.07 0.01 73 1016.9
20211208003110 45 104 0.0 3.0 0.00 0.07 0.01 72 1017.0
20211208001623 45 115 1.0 6.0 0.00 0.07 0.01 72 1016.9
20211208000204 46 118 3.0 8.0 0.00 0.07 0.01 71 1016.9
20211207234708 47 131 3.0 8.0 0.00 0.07 0.01 70 1016.9
20211207233106 47 88 3.0 8.0 0.00 0.07 0.01 70 1016.9
20211207231552 48 104 4.0 9.0 0.00 0.07 0.01 68 1016.6
20211207230052 48 105 5.0 11.0 0.00 0.07 0.01 67 1016.4
20211207224616 48 109 8.0 11.0 0.00 0.07 0.01 66 1016.2